createdAt,value
2023-08-05T00:01:12.279Z,17.13
2023-08-05T00:06:16.307Z,17.14
2023-08-05T00:11:19.614Z,17.14
2023-08-05T00:16:21.379Z,17.17
2023-08-05T00:21:23.258Z,17.25
2023-08-05T00:26:25.056Z,17.25
2023-08-05T00:31:27.224Z,17.12
2023-08-05T00:36:29.046Z,17.06
2023-08-05T00:41:30.677Z,17.13
2023-08-05T00:46:35.309Z,17.13
2023-08-05T00:51:37.398Z,16.84
2023-08-05T00:56:39.491Z,16.85
2023-08-05T01:01:41.238Z,16.63
2023-08-05T01:06:45.685Z,16.69
2023-08-05T01:11:47.594Z,16.87
2023-08-05T01:16:50.467Z,16.75
2023-08-05T01:22:12.064Z,16.87
2023-08-05T01:27:13.947Z,16.86
2023-08-05T01:32:18.436Z,16.88
2023-08-05T01:37:22.076Z,16.79
2023-08-05T01:42:23.937Z,16.70
2023-08-05T01:47:26.060Z,16.59
2023-08-05T01:52:27.809Z,16.60
2023-08-05T01:57:29.534Z,16.56
2023-08-05T02:02:32.227Z,16.62
2023-08-05T02:07:34.033Z,16.49
2023-08-05T02:12:35.726Z,16.65
2023-08-05T02:17:37.439Z,16.50
2023-08-05T02:22:39.221Z,16.60
2023-08-05T02:27:40.945Z,16.55
2023-08-05T02:32:42.608Z,16.51
2023-08-05T02:37:46.628Z,16.57
2023-08-05T02:42:48.327Z,16.47
2023-08-05T02:47:50.030Z,16.44
2023-08-05T02:52:51.714Z,16.50
2023-08-05T02:57:53.384Z,16.46
2023-08-05T03:02:55.686Z,16.43
2023-08-05T03:07:57.480Z,16.45
2023-08-05T03:12:59.215Z,16.39
2023-08-05T03:18:01.453Z,16.47
2023-08-05T03:23:03.992Z,16.49
2023-08-05T03:28:08.230Z,16.43
2023-08-05T03:33:13.811Z,16.33
2023-08-05T03:38:16.598Z,16.46
2023-08-05T03:43:18.332Z,16.49
2023-08-05T03:48:20.087Z,16.29
2023-08-05T03:53:22.945Z,16.27
2023-08-05T03:58:26.787Z,16.19
2023-08-05T04:03:34.408Z,16.20
2023-08-05T04:08:37.374Z,16.25
2023-08-05T04:13:40.568Z,16.15
2023-08-05T04:18:44.821Z,16.17
2023-08-05T04:23:48.258Z,16.12
2023-08-05T04:28:49.985Z,16.06
2023-08-05T04:33:51.671Z,16.11
2023-08-05T04:38:53.320Z,16.05
2023-08-05T04:43:54.982Z,16.13
2023-08-05T04:48:56.684Z,16.11
2023-08-05T04:53:58.623Z,16.16
2023-08-05T04:59:00.275Z,16.11
2023-08-05T05:04:03.258Z,16.04
2023-08-05T05:09:05.001Z,16.07
2023-08-05T05:14:07.702Z,16.05
2023-08-05T05:19:10.086Z,16.03
2023-08-05T05:24:11.756Z,16.10
2023-08-05T05:29:13.389Z,16.00
2023-08-05T05:34:15.093Z,16.02
2023-08-05T05:39:16.827Z,16.06
2023-08-05T05:44:18.825Z,16.05
2023-08-05T05:49:21.847Z,16.08
2023-08-05T05:54:23.675Z,16.10
2023-08-05T05:59:26.302Z,16.05
2023-08-05T06:04:29.575Z,16.08
2023-08-05T06:09:33.680Z,16.18
2023-08-05T06:14:35.855Z,16.12
2023-08-05T06:19:37.484Z,16.06
2023-08-05T06:24:39.669Z,16.21
2023-08-05T06:29:41.308Z,16.32
2023-08-05T06:34:43.064Z,16.41
2023-08-05T06:39:45.220Z,16.45
2023-08-05T06:44:48.658Z,16.50
2023-08-05T06:49:50.771Z,16.52
2023-08-05T06:54:52.416Z,16.61
2023-08-05T06:59:54.165Z,16.58
2023-08-05T07:04:55.812Z,16.62
2023-08-05T07:10:03.272Z,16.63
2023-08-05T07:15:05.630Z,16.79
2023-08-05T07:20:08.019Z,16.92
2023-08-05T07:25:09.654Z,16.84
2023-08-05T07:30:11.683Z,16.81
2023-08-05T07:35:16.316Z,16.86
2023-08-05T07:40:17.921Z,17.02
2023-08-05T07:45:20.249Z,17.17
2023-08-05T07:50:25.099Z,17.18
2023-08-05T07:55:31.322Z,17.17
2023-08-05T08:00:34.866Z,17.45
2023-08-05T08:05:36.522Z,17.63
2023-08-05T08:10:38.154Z,17.51
2023-08-05T08:15:39.914Z,17.62
2023-08-05T08:20:41.630Z,17.66
2023-08-05T08:25:43.286Z,17.73
2023-08-05T08:30:58.446Z,17.83
2023-08-05T08:36:00.168Z,17.96
2023-08-05T08:41:05.225Z,18.03
2023-08-05T08:46:08.976Z,18.11
2023-08-05T08:51:11.242Z,18.11
2023-08-05T08:56:13.123Z,18.44
2023-08-05T09:01:19.299Z,18.48
2023-08-05T09:06:23.955Z,18.24
2023-08-05T09:11:25.570Z,18.22
2023-08-05T09:16:27.929Z,18.22
2023-08-05T09:21:29.728Z,18.07
2023-08-05T09:26:37.145Z,18.32
2023-08-05T09:31:38.958Z,18.51
2023-08-05T09:36:40.727Z,18.45
2023-08-05T09:41:51.369Z,18.32
2023-08-05T09:46:57.465Z,18.05
2023-08-05T09:51:59.747Z,18.07
2023-08-05T09:57:04.413Z,17.95
2023-08-05T10:02:11.303Z,18.05
2023-08-05T10:07:15.521Z,18.14
2023-08-05T10:12:43.217Z,18.14
2023-08-05T10:17:45.031Z,18.17
2023-08-05T10:23:15.006Z,18.04
2023-08-05T10:28:29.110Z,17.94
2023-08-05T10:33:30.896Z,17.84
2023-08-05T10:38:43.078Z,17.80
2023-08-05T10:43:44.839Z,17.79
2023-08-05T10:48:49.541Z,17.70
2023-08-05T10:53:57.338Z,17.71
2023-08-05T10:59:03.781Z,17.62
2023-08-05T11:04:29.786Z,17.64
2023-08-05T11:09:34.986Z,17.70
2023-08-05T11:14:38.298Z,17.65
2023-08-05T11:19:58.154Z,17.63
2023-08-05T11:25:06.165Z,17.53
2023-08-05T11:30:18.403Z,17.57
2023-08-05T11:35:20.421Z,17.50
2023-08-05T11:40:22.186Z,17.37
2023-08-05T11:45:23.962Z,16.88
2023-08-05T11:50:36.062Z,16.82
2023-08-05T11:55:38.271Z,16.81
2023-08-05T12:00:53.020Z,16.82
2023-08-05T12:06:03.124Z,16.72
2023-08-05T12:11:04.808Z,16.52
2023-08-05T12:16:19.798Z,16.50
2023-08-05T12:21:22.463Z,16.40
2023-08-05T12:26:30.256Z,16.39
2023-08-05T12:31:33.156Z,16.38
2023-08-05T12:36:34.993Z,16.32
2023-08-05T12:41:36.965Z,16.40
2023-08-05T12:46:38.642Z,16.45
2023-08-05T12:51:40.358Z,16.51
2023-08-05T12:56:42.068Z,16.48
2023-08-05T13:01:43.989Z,16.38
2023-08-05T13:06:45.742Z,16.10
2023-08-05T13:11:47.380Z,16.23
2023-08-05T13:16:49.099Z,16.27
2023-08-05T13:21:50.841Z,16.28
2023-08-05T13:26:52.504Z,16.18
2023-08-05T13:31:54.376Z,16.24
2023-08-05T13:36:56.239Z,16.21
2023-08-05T13:41:59.954Z,16.20
2023-08-05T13:47:02.087Z,16.24
2023-08-05T13:52:05.030Z,16.29
2023-08-05T13:57:06.712Z,16.41
2023-08-05T14:02:08.472Z,16.56
2023-08-05T14:07:10.173Z,16.35
2023-08-05T14:12:11.908Z,16.50
2023-08-05T14:17:13.595Z,16.50
2023-08-05T14:22:16.556Z,16.42
2023-08-05T14:27:18.532Z,16.39
2023-08-05T14:32:20.404Z,16.57
2023-08-05T14:37:22.077Z,16.56
2023-08-05T14:42:23.769Z,16.65
2023-08-05T14:47:25.570Z,16.77
2023-08-05T14:52:27.270Z,16.48
2023-08-05T14:57:28.958Z,16.48
2023-08-05T15:02:30.764Z,16.49
2023-08-05T15:07:35.402Z,16.47
2023-08-05T15:12:37.642Z,16.56
2023-08-05T15:17:42.340Z,16.75
2023-08-05T15:22:44.413Z,16.87
2023-08-05T15:27:46.279Z,17.28
2023-08-05T15:32:49.500Z,17.39
2023-08-05T15:37:51.238Z,17.70
2023-08-05T15:42:53.047Z,18.00
2023-08-05T15:47:54.757Z,17.58
2023-08-05T15:52:56.561Z,17.56
2023-08-05T15:57:58.688Z,17.37
2023-08-05T16:03:00.343Z,17.22
2023-08-05T16:08:04.600Z,17.17
2023-08-05T16:13:06.320Z,17.18
2023-08-05T16:18:10.648Z,17.02
2023-08-05T16:23:12.731Z,17.20
2023-08-05T16:28:14.408Z,17.15
2023-08-05T16:33:16.070Z,16.97
2023-08-05T16:38:17.753Z,17.17
2023-08-05T16:43:19.488Z,17.24
2023-08-05T16:48:21.752Z,17.20
2023-08-05T16:53:23.478Z,17.10
2023-08-05T16:58:25.232Z,17.18
2023-08-05T17:03:27.006Z,16.88
2023-08-05T17:08:28.772Z,16.85
2023-08-05T17:13:30.461Z,16.78
2023-08-05T17:18:36.242Z,16.62
2023-08-05T17:23:37.995Z,16.69
2023-08-05T17:28:39.748Z,16.75
2023-08-05T17:33:41.498Z,16.68
2023-08-05T17:38:43.250Z,16.67
2023-08-05T17:43:45.006Z,16.74
2023-08-05T17:48:52.037Z,16.77
2023-08-05T17:53:54.152Z,16.70
2023-08-05T17:58:56.044Z,16.68
2023-08-05T18:03:57.786Z,16.61
2023-08-05T18:09:02.276Z,16.66
2023-08-05T18:14:04.006Z,16.75
2023-08-05T18:19:08.019Z,16.79
2023-08-05T18:24:09.765Z,16.60
2023-08-05T18:29:11.482Z,16.51
2023-08-05T18:34:13.977Z,16.62
2023-08-05T18:39:15.631Z,16.49
2023-08-05T18:44:17.322Z,16.54
2023-08-05T18:49:19.027Z,16.51
2023-08-05T18:54:22.137Z,16.47
2023-08-05T18:59:27.735Z,16.50
2023-08-05T19:04:33.470Z,16.50
2023-08-05T19:09:52.428Z,16.45
2023-08-05T19:14:54.583Z,16.54
2023-08-05T19:19:56.398Z,16.54
2023-08-05T19:24:58.088Z,16.54
2023-08-05T19:29:59.769Z,16.53
2023-08-05T19:35:04.697Z,16.52
2023-08-05T19:40:07.019Z,16.55
2023-08-05T19:45:08.861Z,16.54
2023-08-05T19:50:10.678Z,16.48
2023-08-05T19:55:12.500Z,16.42
2023-08-05T20:00:14.610Z,16.39
2023-08-05T20:05:16.429Z,16.34
2023-08-05T20:10:18.453Z,16.32
2023-08-05T20:15:20.151Z,16.15
2023-08-05T20:20:22.121Z,16.24
2023-08-05T20:25:23.795Z,16.19
2023-08-05T20:30:25.529Z,16.19
2023-08-05T20:35:27.221Z,16.26
2023-08-05T20:40:28.929Z,16.24
2023-08-05T20:45:30.604Z,16.12
2023-08-05T20:50:34.907Z,16.10
2023-08-05T20:55:36.644Z,16.15
2023-08-05T21:00:38.509Z,16.08
2023-08-05T21:05:40.224Z,16.10
2023-08-05T21:10:42.692Z,16.04
2023-08-05T21:15:44.652Z,16.08
2023-08-05T21:20:46.349Z,16.03
2023-08-05T21:25:48.161Z,15.98
2023-08-05T21:30:50.951Z,16.02
2023-08-05T21:35:55.599Z,16.12
2023-08-05T21:41:00.187Z,16.10
2023-08-05T21:46:04.522Z,16.09
2023-08-05T21:51:07.344Z,16.14
2023-08-05T21:56:09.342Z,16.12
2023-08-05T22:01:11.245Z,16.15
2023-08-05T22:06:13.604Z,16.20
2023-08-05T22:11:15.320Z,16.23
2023-08-05T22:16:17.017Z,16.18
2023-08-05T22:21:19.758Z,16.20
2023-08-05T22:26:21.565Z,16.12
2023-08-05T22:31:23.289Z,16.13
2023-08-05T22:36:25.000Z,16.14
2023-08-05T22:41:26.695Z,16.14
2023-08-05T22:46:28.357Z,16.07
2023-08-05T22:51:33.421Z,16.09
2023-08-05T22:56:35.445Z,16.14
2023-08-05T23:01:37.158Z,16.19
2023-08-05T23:06:38.824Z,16.25
2023-08-05T23:11:40.455Z,16.21
2023-08-05T23:16:42.788Z,16.25
2023-08-05T23:21:44.558Z,16.31
2023-08-05T23:26:46.291Z,16.36
2023-08-05T23:31:47.922Z,16.37
2023-08-05T23:36:49.614Z,16.42
2023-08-05T23:41:51.529Z,16.44
2023-08-05T23:46:53.417Z,16.46
2023-08-05T23:51:55.305Z,16.36
2023-08-05T23:56:57.253Z,16.44
